METAR Data
IDs: Format: Raw Decoded Include TAF

Data at: 1449 UTC 25 Jan 2020

METAR for:KSPW (Spencer Muni, IA, US)
Text:KSPW 251353Z AUTO 31005KT 10SM OVC019 M02/M05 A3001 RMK AO2 SLP178 T10221050
Temperature: -2.2°C ( 28°F)
Dewpoint: -5.0°C ( 23°F) [RH = 81%]
Pressure (altimeter):30.01 inches Hg (1016.3 mb) [Sea level pressure: 1017.8 mb]
Winds:from the NW (310 degrees) at 6 MPH (5 knots; 2.6 m/s)
Visibility:10 or more sm (16+ km)
Ceiling:1900 feet AGL
Clouds: overcast cloud deck at 1900 feet AGL
QC Flag:automated observation with no human augmentation